createdAt,value
2022-09-26T00:04:00.987Z,97769.63
2022-09-26T00:09:24.983Z,97752.44
2022-09-26T00:14:56.013Z,97749.56
2022-09-26T00:20:23.999Z,97751.44
2022-09-26T00:25:47.967Z,97746.88
2022-09-26T00:31:15.055Z,97745.19
2022-09-26T00:36:42.017Z,97741.66
2022-09-26T00:42:06.984Z,97743.50
2022-09-26T00:47:57.009Z,97744.72
2022-09-26T00:53:26.995Z,97738.50
2022-09-26T00:58:58.011Z,97718.97
2022-09-26T01:04:23.018Z,97715.81
2022-09-26T01:09:50.033Z,97706.03
2022-09-26T01:15:17.020Z,97700.66
2022-09-26T01:20:54.635Z,97689.03
2022-09-26T01:26:42.017Z,97689.03
2022-09-26T01:32:32.043Z,97682.81
2022-09-26T01:38:09.038Z,97683.16
2022-09-26T01:43:40.030Z,97685.19
2022-09-26T01:49:18.030Z,97687.13
2022-09-26T01:54:47.070Z,97694.25
2022-09-26T02:00:16.178Z,97694.13
2022-09-26T02:05:49.063Z,97693.13
2022-09-26T02:11:19.050Z,97687.25
2022-09-26T02:16:56.098Z,97681.69
2022-09-26T02:22:24.067Z,97668.22
2022-09-26T02:27:48.086Z,97667.03
2022-09-26T02:33:19.105Z,97672.59
2022-09-26T02:38:48.057Z,97657.63
2022-09-26T02:44:58.794Z,97654.09
2022-09-26T02:50:47.549Z,97650.91
2022-09-26T02:56:24.084Z,97652.13
2022-09-26T03:02:03.094Z,97641.53
2022-09-26T03:07:35.156Z,97635.66
2022-09-26T03:13:11.120Z,97617.34
2022-09-26T03:18:42.100Z,97610.94
2022-09-26T03:24:07.138Z,97607.78
2022-09-26T03:29:35.061Z,97596.72
2022-09-26T03:35:06.063Z,97594.22
2022-09-26T03:40:31.196Z,97601.47
2022-09-26T03:46:23.119Z,97587.38
2022-09-26T03:51:48.100Z,97597.53
2022-09-26T03:57:13.103Z,97589.69
2022-09-26T04:02:51.120Z,97584.91
2022-09-26T04:08:26.117Z,97589.31
2022-09-26T04:13:52.951Z,97586.31
2022-09-26T04:19:26.231Z,97575.25
2022-09-26T04:24:51.144Z,97563.53
2022-09-26T04:30:18.150Z,97561.91
2022-09-26T04:35:50.166Z,97546.81
2022-09-26T04:41:18.105Z,97542.03
2022-09-26T04:46:43.095Z,97546.41
2022-09-26T04:52:13.130Z,97534.84
2022-09-26T04:57:39.175Z,97542.28
2022-09-26T05:03:03.150Z,97542.81
2022-09-26T05:08:31.199Z,97532.59
2022-09-26T05:14:02.154Z,97535.78
2022-09-26T05:19:28.158Z,97532.97
2022-09-26T05:25:27.206Z,97539.38
2022-09-26T05:30:52.165Z,97536.53
2022-09-26T05:36:17.171Z,97535.03
2022-09-26T05:41:45.161Z,97533.69
2022-09-26T05:47:09.253Z,97535.56
2022-09-26T05:52:34.155Z,97536.38
2022-09-26T05:58:14.143Z,97537.72
2022-09-26T06:04:06.194Z,97546.09
2022-09-26T06:09:48.165Z,97551.47
2022-09-26T06:15:42.198Z,97544.06
2022-09-26T06:21:10.184Z,97548.25
2022-09-26T06:26:38.166Z,97546.25
2022-09-26T06:32:05.237Z,97541.03
2022-09-26T06:37:51.174Z,97533.28
2022-09-26T06:43:16.163Z,97536.28
2022-09-26T06:49:02.205Z,97535.59
2022-09-26T06:54:39.264Z,97529.53
2022-09-26T07:00:04.224Z,97521.31
2022-09-26T07:05:50.237Z,97523.59
2022-09-26T07:17:03.182Z,97512.63
2022-09-26T07:22:58.195Z,97522.28
2022-09-26T07:28:23.200Z,97521.03
2022-09-26T07:33:48.193Z,97504.19
2022-09-26T07:39:16.403Z,97502.28
2022-09-26T07:45:20.414Z,97483.75
2022-09-26T07:50:25.234Z,97475.59
2022-09-26T07:56:11.257Z,97468.22
2022-09-26T08:01:52.325Z,97460.84
2022-09-26T08:07:23.276Z,97433.19
2022-09-26T08:13:03.243Z,97434.16
2022-09-26T08:18:42.299Z,97430.16
2022-09-26T08:24:06.302Z,97418.75
2022-09-26T08:30:01.232Z,97406.63
2022-09-26T08:35:25.248Z,97408.09
2022-09-26T08:41:16.211Z,97397.50
2022-09-26T08:47:24.279Z,97392.69
2022-09-26T08:53:20.300Z,97378.72
2022-09-26T08:58:55.233Z,97366.63
2022-09-26T09:04:27.246Z,97360.53
2022-09-26T09:09:54.253Z,97349.69
2022-09-26T09:15:55.359Z,97354.59
2022-09-26T09:21:53.286Z,97361.16
2022-09-26T09:28:08.669Z,97341.50
2022-09-26T09:33:39.312Z,97337.34
2022-09-26T09:39:34.269Z,97332.03
2022-09-26T09:45:15.301Z,97331.84
2022-09-26T09:50:50.262Z,97323.13
2022-09-26T09:56:29.319Z,97314.22
2022-09-26T10:01:57.292Z,97293.22
2022-09-26T10:07:23.331Z,97298.00
2022-09-26T10:13:20.282Z,97288.41
2022-09-26T10:19:15.281Z,97289.03
2022-09-26T10:24:48.295Z,97282.75
2022-09-26T10:30:32.403Z,97269.66
2022-09-26T10:36:04.300Z,97269.41
2022-09-26T10:41:34.361Z,97267.38
2022-09-26T10:47:03.349Z,97256.50
2022-09-26T10:52:50.326Z,97252.69
2022-09-26T10:58:24.339Z,97261.03
2022-09-26T11:03:59.352Z,97239.75
2022-09-26T11:09:47.331Z,97239.31
2022-09-26T11:15:42.329Z,97234.56
2022-09-26T11:21:28.206Z,97218.06
2022-09-26T11:27:00.335Z,97218.28
2022-09-26T11:32:30.377Z,97201.53
2022-09-26T11:38:26.386Z,97199.84
2022-09-26T11:44:02.343Z,97197.06
2022-09-26T11:50:09.313Z,97203.41
2022-09-26T11:56:09.351Z,97189.31
2022-09-26T12:01:56.326Z,97186.63
2022-09-26T12:07:28.366Z,97179.72
2022-09-26T12:13:05.411Z,97195.63
2022-09-26T12:18:41.398Z,97166.25
2022-09-26T12:24:11.382Z,97151.22
2022-09-26T12:29:53.376Z,97142.41
2022-09-26T12:35:36.446Z,97138.91
2022-09-26T12:41:12.483Z,97125.06
2022-09-26T12:47:05.366Z,97124.38
2022-09-26T12:52:45.363Z,97108.84
2022-09-26T12:58:26.445Z,97104.03
2022-09-26T13:04:28.393Z,97096.75
2022-09-26T13:10:11.412Z,97099.75
2022-09-26T13:15:42.407Z,97091.28
2022-09-26T13:21:14.407Z,97089.09
2022-09-26T13:26:44.419Z,97076.94
2022-09-26T13:32:16.400Z,97075.66
2022-09-26T13:38:07.496Z,97066.59
2022-09-26T13:43:51.435Z,97072.38
2022-09-26T13:49:23.434Z,97092.59
2022-09-26T13:55:04.421Z,97068.84
2022-09-26T14:01:01.435Z,97058.78
2022-09-26T14:06:40.525Z,97048.47
2022-09-26T14:12:29.433Z,97036.97
2022-09-26T14:18:18.469Z,97032.09
2022-09-26T14:23:55.430Z,97019.50
2022-09-26T14:29:46.466Z,97014.31
2022-09-26T14:35:12.476Z,97010.22
2022-09-26T14:40:41.519Z,96995.06
2022-09-26T14:46:18.506Z,96989.84
2022-09-26T14:51:47.488Z,96981.53
2022-09-26T14:57:20.732Z,96980.13
2022-09-26T15:02:51.532Z,96978.56
2022-09-26T15:08:17.522Z,96971.25
2022-09-26T15:13:46.517Z,96963.91
2022-09-26T15:19:18.499Z,96955.00
2022-09-26T15:24:45.507Z,96955.81
2022-09-26T15:30:12.505Z,96944.41
2022-09-26T15:35:41.565Z,96953.31
2022-09-26T15:41:15.561Z,96940.78
2022-09-26T15:46:41.568Z,96937.34
2022-09-26T15:52:11.510Z,96937.06
2022-09-26T15:57:36.510Z,96935.03
2022-09-26T16:03:05.569Z,96933.44
2022-09-26T16:08:36.524Z,96921.00
2022-09-26T16:14:06.551Z,96921.84
2022-09-26T16:19:44.915Z,96919.19
2022-09-26T16:25:35.535Z,96920.88
2022-09-26T16:31:22.602Z,96920.03
2022-09-26T16:36:48.531Z,96922.72
2022-09-26T16:42:24.526Z,96915.66
2022-09-26T16:47:56.542Z,96915.00
2022-09-26T16:53:21.551Z,96905.66
2022-09-26T16:58:48.588Z,96904.84
2022-09-26T17:04:22.525Z,96905.25
2022-09-26T17:09:48.572Z,96891.75
2022-09-26T17:15:26.620Z,96898.38
2022-09-26T17:20:54.573Z,96891.94
2022-09-26T17:26:19.589Z,96891.53
2022-09-26T17:31:47.579Z,96893.59
2022-09-26T17:37:13.567Z,96890.03
2022-09-26T17:42:38.562Z,96901.91
2022-09-26T17:48:13.583Z,96898.97
2022-09-26T17:53:46.180Z,96896.06
2022-09-26T17:59:12.657Z,96880.31
2022-09-26T18:04:41.570Z,96886.13
2022-09-26T18:10:06.587Z,96867.25
2022-09-26T18:15:37.633Z,96867.25
2022-09-26T18:21:10.582Z,96871.00
2022-09-26T18:26:43.578Z,96856.66
2022-09-26T18:32:09.580Z,96851.47
2022-09-26T18:37:36.584Z,96849.38
2022-09-26T18:43:03.644Z,96841.94
2022-09-26T18:48:40.615Z,96837.78
2022-09-26T18:54:11.512Z,96831.75
2022-09-26T18:59:37.585Z,96828.00
2022-09-26T19:05:06.626Z,96819.50
2022-09-26T19:10:37.610Z,96825.94
2022-09-26T19:16:08.668Z,96814.53
2022-09-26T19:21:40.616Z,96800.19
2022-09-26T19:27:10.634Z,96803.75
2022-09-26T19:32:40.617Z,96792.34
2022-09-26T19:38:04.621Z,96786.53
2022-09-26T19:43:32.656Z,96797.72
2022-09-26T19:48:56.656Z,96787.16
2022-09-26T19:54:26.644Z,96791.69
2022-09-26T19:59:54.642Z,96794.81
2022-09-26T20:05:26.631Z,96785.88
2022-09-26T20:10:51.629Z,96774.91
2022-09-26T20:16:21.793Z,96775.31
2022-09-26T20:21:46.659Z,96764.53
2022-09-26T20:27:14.660Z,96761.22
2022-09-26T20:32:41.663Z,96746.31
2022-09-26T20:38:12.638Z,96734.28
2022-09-26T20:43:43.663Z,96728.88
2022-09-26T20:49:14.819Z,96731.56
2022-09-26T20:54:43.686Z,96717.88
2022-09-26T21:00:08.781Z,96705.88
2022-09-26T21:05:38.681Z,96696.13
2022-09-26T21:11:05.661Z,96692.41
2022-09-26T21:16:31.708Z,96671.25
2022-09-26T21:22:02.071Z,96669.19
2022-09-26T21:27:31.682Z,96664.44
2022-09-26T21:32:59.723Z,96659.47
2022-09-26T21:38:26.711Z,96649.72
2022-09-26T21:43:55.694Z,96649.72
2022-09-26T21:49:19.680Z,96640.63
2022-09-26T21:54:50.677Z,96632.31
2022-09-26T22:00:16.704Z,96611.81
2022-09-26T22:05:41.693Z,96606.41
2022-09-26T22:11:11.709Z,96594.59
2022-09-26T22:16:36.798Z,96577.63
2022-09-26T22:22:01.701Z,96566.41
2022-09-26T22:27:29.700Z,96561.25
2022-09-26T22:32:53.736Z,96556.50
2022-09-26T22:38:18.720Z,96544.06
2022-09-26T22:43:46.733Z,96537.22
2022-09-26T22:49:12.785Z,96535.56
2022-09-26T22:54:36.719Z,96527.25
2022-09-26T23:00:04.771Z,96524.16
2022-09-26T23:05:28.715Z,96514.41
2022-09-26T23:10:58.773Z,96501.34
2022-09-26T23:16:27.811Z,96489.31
2022-09-26T23:21:53.747Z,96480.19
2022-09-26T23:27:17.735Z,96481.03
2022-09-26T23:32:45.724Z,96473.75
2022-09-26T23:38:11.748Z,96469.22
2022-09-26T23:43:36.747Z,96453.03
2022-09-26T23:49:03.769Z,96452.41
2022-09-26T23:54:28.751Z,96449.09
2022-09-26T23:59:59.752Z,96446.16
